Terminal Aerodrome Forecast
Issued by NWS

Home | Current Version | Previous Version | Text Only | Print | Product List | Glossary On
Versions: 1 2 3 4 5 6 7 8 9 10 11 12 13
653
FTAK31 PAJN 221720
TAFAYA
TAF
PAYA 221720Z 2218/2318 VRB03KT P6SM FEW050
     FM231000 08004KT P6SM VCSH BKN030 OVC050
      TEMPO 2310/2314 5SM -SHRA BKN020 OVC040
      AMD NOT SKED=

USA.gov is the U.S. government's official web portal to all federal, state and local government web resources and services.